Time;durP1;ratioP1;P1;durP2;ratioP2;P2;SDS_P1;SDS_P2;PMS_P1;PMS_P2;Temp;Humidity;BMP_temperature;BMP_pressure;BME280_temperature;BME280_humidity;BME280_pressure;Samples;Min_cycle;Max_cycle;Signal;HPM_P1;HPM_P2
2022/04/21 00:01:12;;;;;;;10.23;8.80;;;;;;;8.18;69.38;99795.89;1711568;82;21098;-76
2022/04/21 00:03:40;;;;;;;10.48;8.23;;;;;;;8.17;69.42;99790.85;1682092;84;21145;-77
2022/04/21 00:06:08;;;;;;;10.00;8.40;;;;;;;8.16;69.36;99790.55;1677461;84;21063;-75
2022/04/21 00:08:35;;;;;;;10.25;8.58;;;;;;;8.15;69.40;99795.08;1697114;84;21060;-75
2022/04/21 00:11:04;;;;;;;11.08;8.45;;;;;;;8.13;69.39;99790.56;1697383;83;21166;-73
2022/04/21 00:13:34;;;;;;;10.65;8.85;;;;;;;8.11;69.41;99787.36;1709325;82;21023;-75
2022/04/21 00:16:01;;;;;;;10.55;8.63;;;;;;;8.07;69.39;99784.95;1703563;82;21778;-76
2022/04/21 00:18:30;;;;;;;10.98;8.53;;;;;;;8.04;69.38;99793.45;1726164;83;21060;-75
2022/04/21 00:20:59;;;;;;;10.78;8.90;;;;;;;8.05;69.48;99787.06;1725955;83;21131;-75
2022/04/21 00:23:28;;;;;;;10.03;8.75;;;;;;;8.05;69.44;99784.40;1714004;83;21101;-74
2022/04/21 00:25:59;;;;;;;10.72;8.60;;;;;;;8.03;69.51;99793.19;1700304;82;21723;-74
2022/04/21 00:28:31;;;;;;;9.85;8.85;;;;;;;8.05;69.61;99791.05;1694491;84;22004;-74
2022/04/21 00:30:58;;;;;;;9.90;8.43;;;;;;;8.05;69.62;99785.73;1697300;84;21159;-74
2022/04/21 00:33:26;;;;;;;11.40;8.80;;;;;;;8.03;69.65;99783.05;1675356;84;21537;-75
2022/04/21 00:35:53;;;;;;;10.03;8.85;;;;;;;7.99;69.76;99780.94;1694263;84;21078;-74
2022/04/21 00:38:22;;;;;;;10.38;9.13;;;;;;;7.97;69.77;99781.71;1697107;82;21101;-75
2022/04/21 00:40:50;;;;;;;10.23;9.07;;;;;;;7.94;69.87;99777.44;1582549;83;10000599;-74
2022/04/21 00:43:20;;;;;;;11.35;9.75;;;;;;;7.92;69.93;99781.67;1711519;83;21066;-74
2022/04/21 00:45:49;;;;;;;10.68;9.25;;;;;;;7.91;69.99;99779.28;1694019;83;21530;-74
2022/04/21 00:48:16;;;;;;;10.28;8.98;;;;;;;7.89;70.04;99782.72;1697006;84;21058;-75
2022/04/21 00:50:43;;;;;;;10.68;9.13;;;;;;;7.85;70.11;99774.99;1663189;86;21210;-75
2022/04/21 00:53:10;;;;;;;10.80;9.05;;;;;;;7.87;70.21;99774.22;1694543;83;21086;-74
2022/04/21 00:55:39;;;;;;;10.35;9.25;;;;;;;7.89;70.26;99764.11;1687923;83;21082;-74
2022/04/21 00:58:07;;;;;;;10.05;8.43;;;;;;;7.91;70.21;99761.47;1688483;84;21503;-74
2022/04/21 01:00:36;;;;;;;10.32;9.23;;;;;;;7.90;70.21;99759.88;1684372;83;21133;-73
2022/04/21 01:03:05;;;;;;;11.43;9.45;;;;;;;7.91;70.21;99756.69;1661425;84;22142;-74
2022/04/21 01:05:34;;;;;;;10.53;8.63;;;;;;;7.89;70.17;99758.25;1697592;82;21085;-75
2022/04/21 01:08:08;;;;;;;9.63;8.63;;;;;;;7.88;70.14;99757.20;1704726;83;20996;-74
2022/04/21 01:10:38;;;;;;;10.38;8.28;;;;;;;7.89;70.12;99754.27;1663730;84;21071;-74
2022/04/21 01:13:06;;;;;;;10.08;8.38;;;;;;;7.89;70.12;99751.61;1689480;83;21708;-75
2022/04/21 01:15:36;;;;;;;10.60;8.70;;;;;;;7.92;70.15;99748.97;1665292;84;21278;-74
2022/04/21 01:18:03;;;;;;;9.75;8.00;;;;;;;7.92;70.10;99751.09;1698675;83;20972;-74
2022/04/21 01:20:33;;;;;;;9.83;8.83;;;;;;;7.90;70.08;99750.57;1701848;83;21648;-74
2022/04/21 01:23:01;;;;;;;11.05;9.25;;;;;;;7.88;70.10;99746.56;1685570;83;22492;-74
2022/04/21 01:25:37;;;;;;;9.70;8.63;;;;;;;7.87;70.13;99748.96;1686861;83;21522;-75
2022/04/21 01:28:04;;;;;;;8.35;7.10;;;;;;;7.87;70.18;99749.76;1684647;82;21116;-74
2022/04/21 01:30:31;;;;;;;10.23;8.90;;;;;;;7.86;70.15;99748.67;1668809;84;21603;-74
2022/04/21 01:32:58;;;;;;;11.43;9.73;;;;;;;7.82;70.13;99747.59;1689913;83;21078;-74
2022/04/21 01:35:26;;;;;;;9.33;8.23;;;;;;;7.77;70.14;99744.39;1647806;84;21082;-74
2022/04/21 01:43:24;;;;;;;11.95;9.88;;;;;;;7.74;70.33;99738.26;1663581;84;21622;-75
2022/04/21 01:45:52;;;;;;;11.22;9.40;;;;;;;7.73;70.39;99736.13;1654035;84;21185;-75
2022/04/21 01:48:19;;;;;;;9.88;8.88;;;;;;;7.73;70.36;99734.81;1664443;84;21035;-75
2022/04/21 01:50:47;;;;;;;10.68;9.58;;;;;;;7.72;70.36;99736.38;1668463;83;21517;-76
2022/04/21 01:53:15;;;;;;;10.48;9.38;;;;;;;7.72;70.36;99737.17;1683732;83;21565;-76
2022/04/21 01:55:42;;;;;;;9.78;8.68;;;;;;;7.75;70.41;99742.51;1657422;85;21086;-76
2022/04/21 01:58:11;;;;;;;10.50;9.40;;;;;;;7.79;70.39;99742.79;1667101;84;21039;-75
2022/04/21 02:00:40;;;;;;;11.70;9.50;;;;;;;7.77;70.34;99742.27;1696056;83;22097;-75
2022/04/21 02:03:07;;;;;;;10.68;9.58;;;;;;;7.76;70.40;99733.47;1690974;83;21016;-74
2022/04/21 02:05:34;;;;;;;11.50;9.40;;;;;;;7.77;70.29;99734.30;1658307;85;21406;-75
2022/04/21 02:08:03;;;;;;;10.25;9.15;;;;;;;7.77;70.24;99732.43;1679013;83;21087;-75
2022/04/21 02:10:32;;;;;;;10.68;9.58;;;;;;;7.79;70.26;99734.81;1684097;82;21039;-75
2022/04/21 02:13:00;;;;;;;10.68;9.53;;;;;;;7.78;70.19;99738.01;1689472;83;21024;-76
2022/04/21 02:15:28;;;;;;;10.98;9.85;;;;;;;7.77;70.14;99730.30;1679197;83;21071;-75
2022/04/21 02:17:56;;;;;;;11.12;9.40;;;;;;;7.78;70.13;99729.23;1653106;84;21154;-75
2022/04/21 02:20:23;;;;;;;11.55;9.35;;;;;;;7.81;70.08;99731.38;1663367;84;20944;-76
2022/04/21 02:22:52;;;;;;;10.10;9.05;;;;;;;7.81;70.00;99730.05;1666352;84;21800;-76
2022/04/21 02:25:19;;;;;;;10.55;9.18;;;;;;;7.82;70.00;99729.78;1688160;83;21111;-75
2022/04/21 02:27:48;;;;;;;10.88;9.78;;;;;;;7.83;70.00;99730.07;1684914;82;21071;-75
2022/04/21 02:30:17;;;;;;;12.00;9.68;;;;;;;7.84;70.00;99730.33;1715872;82;21154;-75
2022/04/21 02:32:46;;;;;;;11.12;9.93;;;;;;;7.85;69.90;99727.14;1695510;82;21064;-76
2022/04/21 02:35:13;;;;;;;11.97;10.23;;;;;;;7.84;69.80;99726.87;1683636;83;20995;-76
2022/04/21 02:37:46;;;;;;;13.03;10.72;;;;;;;7.83;69.74;99723.92;1680133;83;21078;-76
2022/04/21 02:40:15;;;;;;;12.00;10.28;;;;;;;7.80;69.71;99721.78;1690806;82;21019;-75
2022/04/21 02:42:44;;;;;;;13.45;10.93;;;;;;;7.79;69.67;99724.18;1686365;83;21585;-76
2022/04/21 02:45:13;;;;;;;14.18;11.43;;;;;;;7.80;69.71;99730.59;1663730;84;21134;-75
2022/04/21 02:47:42;;;;;;;14.03;10.23;;;;;;;7.79;69.64;99726.30;1685380;83;21051;-75
2022/04/21 02:50:13;;;;;;;13.85;10.32;;;;;;;7.79;69.64;99734.28;1691028;82;21511;-75
2022/04/21 02:52:42;;;;;;;11.95;9.95;;;;;;;7.74;69.59;99732.41;1665175;84;21072;-75
2022/04/21 02:57:56;;;;;;;11.12;9.93;;;;;;;7.70;69.67;99727.84;1660918;82;20968;-75
2022/04/21 03:00:24;;;;;;;11.33;9.93;;;;;;;7.70;69.72;99724.69;1702973;84;21122;-75
2022/04/21 03:02:51;;;;;;;11.53;9.25;;;;;;;7.71;69.65;99728.94;1695442;82;21022;-76
2022/04/21 03:05:19;;;;;;;10.10;8.93;;;;;;;7.71;69.61;99729.47;1697666;83;21528;-75
2022/04/21 03:07:47;;;;;;;10.93;9.53;;;;;;;7.72;69.63;99731.06;1695760;84;21253;-74
2022/04/21 03:10:16;;;;;;;12.05;9.95;;;;;;;7.71;69.51;99729.47;1691953;83;21141;-74
2022/04/21 03:12:44;;;;;;;12.05;9.85;;;;;;;7.64;69.38;99728.38;1657281;84;21103;-73
2022/04/21 03:15:12;;;;;;;12.15;10.25;;;;;;;7.55;69.28;99725.92;1690686;83;20984;-74
2022/04/21 03:17:41;;;;;;;11.40;10.20;;;;;;;7.41;69.34;99730.89;1687390;83;21487;-75
2022/04/21 03:20:09;;;;;;;12.60;11.05;;;;;;;7.36;69.51;99727.39;1680245;82;21110;-74
2022/04/21 03:25:30;;;;;;;9.60;8.58;;;;;;;7.34;69.58;99729.49;1679036;83;21075;-74
2022/04/21 03:27:56;;;;;;;10.78;9.55;;;;;;;7.24;69.64;99731.58;1699560;84;21020;-74
2022/04/21 03:30:23;;;;;;;11.93;10.30;;;;;;;7.18;69.85;99729.94;1701385;82;21197;-74
2022/04/21 03:32:51;;;;;;;9.80;8.75;;;;;;;7.21;69.95;99740.05;1693149;83;21110;-74
2022/04/21 03:35:18;;;;;;;11.50;9.98;;;;;;;7.24;69.96;99735.56;1679910;84;21051;-74
2022/04/21 03:37:46;;;;;;;11.40;10.20;;;;;;;7.23;70.00;99737.39;1700537;83;21078;-75
2022/04/21 03:40:14;;;;;;;11.38;9.48;;;;;;;7.26;70.02;99738.22;1689572;83;21506;-76
2022/04/21 03:42:41;;;;;;;11.95;9.53;;;;;;;7.30;69.99;99734.52;1673050;85;21079;-74
2022/04/21 03:45:10;;;;;;;11.28;10.08;;;;;;;7.31;70.00;99736.67;1688703;84;21019;-73
2022/04/21 03:47:39;;;;;;;11.35;9.90;;;;;;;7.35;70.01;99733.77;1694526;83;21720;-73
2022/04/21 03:50:08;;;;;;;10.20;8.70;;;;;;;7.38;69.93;99737.25;1684141;82;21086;-74
2022/04/21 03:52:35;;;;;;;11.50;9.88;;;;;;;7.38;69.83;99735.92;1689327;82;21078;-73
2022/04/21 03:55:03;;;;;;;11.53;9.40;;;;;;;7.37;69.78;99736.45;1688500;83;21114;-74
2022/04/21 03:57:32;;;;;;;10.63;8.53;;;;;;;7.36;69.72;99736.16;1694164;83;21617;-75
2022/04/21 03:59:59;;;;;;;10.10;8.40;;;;;;;7.33;69.65;99738.00;1701254;82;21077;-75
2022/04/21 04:02:28;;;;;;;9.90;8.08;;;;;;;7.28;69.71;99734.79;1699013;82;21106;-74
2022/04/21 04:04:56;;;;;;;8.88;7.95;;;;;;;7.26;69.76;99742.73;1682882;83;21068;-76
2022/04/21 04:13:01;;;;;;;9.23;8.33;;;;;;;7.32;69.89;99740.92;1684790;83;21059;-74
2022/04/21 04:15:28;;;;;;;9.60;8.33;;;;;;;7.32;69.84;99736.41;1684191;83;21054;-74
2022/04/21 04:17:55;;;;;;;8.53;7.37;;;;;;;7.37;69.86;99734.30;1685938;83;21178;-74
2022/04/21 04:20:22;;;;;;;8.03;7.22;;;;;;;7.39;69.84;99738.84;1685661;83;21644;-74
2022/04/21 04:22:51;;;;;;;9.13;7.67;;;;;;;7.38;69.80;99740.70;1684618;83;21698;-74
2022/04/21 04:25:20;;;;;;;8.70;7.40;;;;;;;7.39;69.78;99746.81;1683209;83;20974;-74
2022/04/21 04:27:47;;;;;;;8.18;7.15;;;;;;;7.39;69.77;99748.94;1682884;83;21152;-74
2022/04/21 04:30:15;;;;;;;8.88;7.55;;;;;;;7.37;69.71;99746.25;1683150;83;21105;-75
2022/04/21 04:32:43;;;;;;;8.50;7.60;;;;;;;7.32;69.74;99743.05;1686677;83;21089;-74
2022/04/21 04:35:12;;;;;;;7.55;6.00;;;;;;;7.32;69.81;99740.92;1681044;83;21168;-74
2022/04/21 04:37:41;;;;;;;8.90;7.78;;;;;;;7.34;69.87;99739.62;1690639;82;21414;-74
2022/04/21 04:40:09;;;;;;;8.48;7.42;;;;;;;7.34;69.82;99746.26;1691409;83;21133;-74
2022/04/21 04:42:36;;;;;;;8.65;7.58;;;;;;;7.35;69.84;99739.88;1682454;83;21038;-74
2022/04/21 04:47:50;;;;;;;8.38;6.92;;;;;;;7.29;70.04;99741.69;1686670;83;21208;-74
2022/04/21 04:50:19;;;;;;;8.93;7.78;;;;;;;7.39;70.08;99737.51;1686606;83;21542;-74
2022/04/21 04:52:51;;;;;;;9.28;8.18;;;;;;;7.39;70.04;99735.65;1691419;83;21118;-73
2022/04/21 04:55:15;;;;;;;9.48;8.45;;;;;;;7.47;70.05;99749.80;1682241;83;21157;-73
2022/04/21 04:57:43;;;;;;;8.20;6.65;;;;;;;7.56;69.95;99751.43;1692420;83;21059;-75
2022/04/21 05:00:12;;;;;;;9.33;8.23;;;;;;;7.62;69.69;99746.95;1701454;82;21116;-74
2022/04/21 05:02:39;;;;;;;9.53;8.20;;;;;;;7.63;69.49;99743.23;1701320;84;21491;-75
2022/04/21 05:05:08;;;;;;;8.55;7.65;;;;;;;7.64;69.48;99749.64;1699406;83;21498;-74
2022/04/21 05:07:35;;;;;;;9.38;8.38;;;;;;;7.70;69.51;99744.63;1702468;83;21043;-74
2022/04/21 05:10:03;;;;;;;9.78;8.75;;;;;;;7.73;69.40;99741.45;1698672;84;21608;-76
2022/04/21 05:12:30;;;;;;;10.45;8.35;;;;;;;7.77;69.40;99750.24;1702172;83;21675;-75
2022/04/21 05:14:59;;;;;;;9.58;8.63;;;;;;;7.61;69.62;99748.02;1685623;83;21030;-75
2022/04/21 05:17:27;;;;;;;10.05;8.93;;;;;;;7.63;69.86;99741.37;1683989;83;21039;-74
2022/04/21 05:19:56;;;;;;;9.28;8.10;;;;;;;7.72;69.89;99747.80;1683192;83;21070;-75
2022/04/21 05:22:37;;;;;;;11.35;8.08;;;;;;;7.98;69.54;99754.05;1655275;84;21082;-75
2022/04/21 05:24:57;;;;;;;10.30;8.58;;;;;;;8.09;69.20;99752.77;1682254;83;20992;-75
2022/04/21 05:27:26;;;;;;;10.90;9.40;;;;;;;8.16;69.05;99751.98;1664644;84;20976;-74
2022/04/21 05:32:41;;;;;;;9.85;8.08;;;;;;;8.31;68.62;99756.05;1663761;84;21931;-75
2022/04/21 05:35:11;;;;;;;10.00;8.78;;;;;;;8.32;68.36;99755.50;1660780;84;21648;-75
2022/04/21 05:37:40;;;;;;;11.18;9.65;;;;;;;8.29;68.33;99753.36;1682451;82;21227;-75
2022/04/21 05:40:08;;;;;;;11.12;9.08;;;;;;;8.31;68.39;99753.92;1693222;83;20972;-73
2022/04/21 05:42:36;;;;;;;11.38;9.48;;;;;;;8.40;68.39;99760.37;1694335;83;21120;-76
2022/04/21 05:45:04;;;;;;;10.88;8.78;;;;;;;8.48;68.26;99759.05;1672499;84;21138;-75
2022/04/21 05:47:33;;;;;;;10.32;8.58;;;;;;;8.55;68.05;99759.59;1701831;83;21071;-75
2022/04/21 05:50:01;;;;;;;10.15;8.53;;;;;;;8.56;68.03;99762.55;1683638;82;21300;-74
2022/04/21 05:52:30;;;;;;;10.03;8.40;;;;;;;8.62;67.95;99755.64;1695883;83;21110;-77
2022/04/21 05:54:59;;;;;;;9.95;8.53;;;;;;;8.64;67.66;99756.16;1698409;82;21078;-74
2022/04/21 05:57:27;;;;;;;10.35;8.80;;;;;;;8.53;67.57;99761.20;1665393;83;21002;-77
2022/04/21 05:59:56;;;;;;;10.82;9.45;;;;;;;8.50;67.66;99759.06;1685116;83;21068;-75
2022/04/21 06:02:24;;;;;;;11.12;9.93;;;;;;;8.48;67.79;99755.85;1684581;83;21111;-76
2022/04/21 06:04:58;;;;;;;10.72;8.70;;;;;;;8.48;67.82;99761.17;1685468;82;21161;-77
2022/04/21 06:07:24;;;;;;;10.48;9.30;;;;;;;8.55;67.80;99755.60;1683291;83;21118;-75
2022/04/21 06:09:51;;;;;;;9.98;8.95;;;;;;;8.58;67.76;99759.07;1684141;83;21106;-74
2022/04/21 06:12:23;;;;;;;12.50;10.60;;;;;;;8.65;67.70;99765.77;1693121;83;21506;-76
2022/04/21 06:14:51;;;;;;;11.30;10.10;;;;;;;8.71;67.54;99763.09;1682617;82;21948;-76
2022/04/21 06:17:19;;;;;;;12.53;11.10;;;;;;;8.78;67.36;99763.63;1687969;82;21065;-75
2022/04/21 06:19:47;;;;;;;11.65;10.20;;;;;;;8.81;66.97;99761.77;1691939;83;21189;-76
2022/04/21 06:22:15;;;;;;;12.73;11.38;;;;;;;8.84;67.13;99761.25;1686797;83;21054;-74
2022/04/21 06:24:44;;;;;;;12.82;11.50;;;;;;;8.91;67.15;99758.58;1658457;84;21047;-76
2022/04/21 06:27:12;;;;;;;11.73;10.40;;;;;;;9.04;67.10;99758.59;1687158;83;21171;-75
2022/04/21 06:29:39;;;;;;;11.50;10.30;;;;;;;9.24;66.82;99763.66;1662595;84;21314;-74
2022/04/21 06:32:07;;;;;;;12.03;10.75;;;;;;;9.39;66.53;99756.99;1691360;83;21807;-75
2022/04/21 06:34:35;;;;;;;13.85;11.88;;;;;;;9.46;66.14;99762.05;1664400;84;21057;-77
2022/04/21 06:37:04;;;;;;;12.78;11.38;;;;;;;9.55;66.02;99750.58;1688270;83;21105;-75
2022/04/21 06:39:32;;;;;;;13.68;12.28;;;;;;;9.63;65.44;99754.01;1686777;83;20988;-74
2022/04/21 06:41:59;;;;;;;15.18;12.47;;;;;;;9.71;65.34;99758.55;1687344;83;21091;-74
2022/04/21 06:50:01;;;;;;;15.50;13.75;;;;;;;10.48;64.62;99756.39;1684658;83;21062;-74
2022/04/21 06:52:32;;;;;;;11.75;10.53;;;;;;;10.78;63.80;99756.74;1684340;83;21673;-75
2022/04/21 06:55:00;;;;;;;15.80;12.85;;;;;;;10.92;62.65;99761.70;1688715;83;21784;-76
2022/04/21 06:57:28;;;;;;;16.33;13.13;;;;;;;10.95;62.27;99759.81;1690140;83;21007;-76
2022/04/21 06:59:55;;;;;;;15.08;13.32;;;;;;;11.00;61.90;99752.32;1686438;83;21604;-76
2022/04/21 07:02:31;;;;;;;14.03;12.45;;;;;;;11.04;61.75;99756.81;1668414;86;21095;-75
2022/04/21 07:05:09;;;;;;;15.35;13.43;;;;;;;11.14;61.46;99755.14;1667191;86;23138;-75
2022/04/21 07:07:39;;;;;;;16.52;13.95;;;;;;;11.15;60.96;99758.86;1669189;85;21566;-76
2022/04/21 07:10:09;;;;;;;15.32;12.68;;;;;;;11.11;60.65;99759.71;1667938;86;21107;-77
2022/04/21 07:12:37;;;;;;;16.50;13.63;;;;;;;11.03;60.65;99769.13;1695776;84;20956;-76
2022/04/21 07:15:08;;;;;;;16.23;13.90;;;;;;;10.97;60.84;99768.91;1695954;84;21299;-76
2022/04/21 07:17:37;;;;;;;17.20;13.37;;;;;;;11.01;60.68;99765.39;1695903;84;21285;-76
2022/04/21 07:20:08;;;;;;;14.70;13.13;;;;;;;11.09;60.56;99777.89;1695617;84;21333;-75
2022/04/21 07:22:35;;;;;;;14.35;12.47;;;;;;;11.09;60.37;99780.05;1703651;84;21692;-76
2022/04/21 07:25:08;;;;;;;13.47;12.07;;;;;;;11.08;60.27;99774.42;1703587;84;21021;-74
2022/04/21 07:27:41;;;;;;;15.53;13.90;;;;;;;10.99;59.98;99770.23;1707278;82;21535;-75
2022/04/21 07:30:09;;;;;;;14.07;12.60;;;;;;;10.86;60.26;99773.53;1731338;82;21312;-75
2022/04/21 07:32:36;;;;;;;14.77;12.17;;;;;;;10.89;60.58;99780.99;1718749;82;21573;-74
2022/04/21 07:35:06;;;;;;;14.23;12.07;;;;;;;10.99;60.50;99777.42;1703750;84;21163;-74
2022/04/21 07:37:36;;;;;;;15.90;12.93;;;;;;;11.04;60.34;99776.86;1703929;84;21593;-75
2022/04/21 07:40:06;;;;;;;13.07;11.67;;;;;;;10.99;60.15;99785.44;1705127;84;21643;-75
2022/04/21 07:42:35;;;;;;;13.62;12.23;;;;;;;10.94;60.26;99790.30;1705553;84;21259;-76
2022/04/21 07:45:03;;;;;;;14.73;13.13;;;;;;;10.90;60.14;99789.80;1713071;82;21056;-76
2022/04/21 07:47:32;;;;;;;13.23;11.00;;;;;;;10.82;60.22;99791.70;1725804;82;21246;-76
2022/04/21 07:49:59;;;;;;;13.07;11.57;;;;;;;10.77;60.40;99791.22;1703431;84;21215;-74
2022/04/21 07:55:17;;;;;;;14.87;12.20;;;;;;;10.55;60.55;99803.08;1703701;84;21673;-74
2022/04/21 07:57:47;;;;;;;16.37;12.80;;;;;;;10.46;60.81;99802.59;1703586;84;21514;-76
2022/04/21 08:00:17;;;;;;;13.07;10.73;;;;;;;10.40;60.98;99807.68;1703987;82;21031;-75
2022/04/21 08:02:45;;;;;;;14.50;12.07;;;;;;;10.36;61.06;99807.44;1704607;82;21494;-76
2022/04/21 08:05:16;;;;;;;16.90;12.90;;;;;;;10.19;61.18;99812.28;1703454;84;21249;-75
2022/04/21 08:07:44;;;;;;;13.28;11.83;;;;;;;10.16;61.54;99812.82;1703829;84;21276;-74
2022/04/21 08:10:12;;;;;;;13.45;11.15;;;;;;;10.21;61.79;99809.61;1703956;84;21097;-75
2022/04/21 08:12:47;;;;;;;16.35;11.85;;;;;;;10.36;61.89;99811.44;1703718;84;21064;-75
2022/04/21 08:15:24;;;;;;;13.57;11.70;;;;;;;10.47;61.84;99817.02;1704018;84;20993;-77
2022/04/21 08:17:54;;;;;;;13.20;10.73;;;;;;;10.54;61.49;99814.84;1685820;84;22148;-75
2022/04/21 08:20:21;;;;;;;12.82;10.53;;;;;;;10.56;61.40;99814.55;1692999;83;21391;-75
2022/04/21 08:22:48;;;;;;;13.58;10.80;;;;;;;10.64;61.22;99818.53;1666667;86;20988;-75
2022/04/21 08:33:36;;;;;;;13.15;10.98;;;;;;;10.58;60.77;99829.77;1666974;85;21602;-74
2022/04/21 08:36:05;;;;;;;10.13;8.50;;;;;;;10.61;60.71;99836.44;1705921;83;20966;-74
2022/04/21 08:38:34;;;;;;;12.53;10.18;;;;;;;10.60;60.49;99842.86;1701410;83;21623;-75
2022/04/21 08:41:07;;;;;;;12.85;10.43;;;;;;;10.49;60.55;99836.75;1701388;84;21058;-75
2022/04/21 08:43:35;;;;;;;12.43;10.40;;;;;;;10.48;60.74;99841.30;1701238;84;21019;-74
2022/04/21 08:46:04;;;;;;;13.43;10.25;;;;;;;10.47;60.84;99838.91;1701462;83;21769;-75
2022/04/21 08:48:34;;;;;;;13.75;11.28;;;;;;;10.42;61.02;99841.05;1700819;83;21011;-76
2022/04/21 08:51:02;;;;;;;14.45;10.20;;;;;;;10.39;61.08;99844.80;1647740;84;21063;-75
2022/04/21 08:53:29;;;;;;;12.23;9.85;;;;;;;10.39;61.21;99842.92;1695949;83;21126;-75
2022/04/21 08:55:58;;;;;;;12.18;9.83;;;;;;;10.42;61.15;99845.59;1682399;83;38162;-75
2022/04/21 08:58:26;;;;;;;11.77;9.60;;;;;;;10.43;60.98;99857.86;1685231;83;21312;-75
2022/04/21 09:00:54;;;;;;;11.75;9.20;;;;;;;10.42;60.78;99851.73;1700183;84;21524;-75
2022/04/21 09:03:22;;;;;;;12.23;10.00;;;;;;;10.38;60.80;99848.01;1701498;84;21176;-75
2022/04/21 09:05:50;;;;;;;12.93;9.60;;;;;;;10.31;60.83;99856.31;1685086;83;21633;-75
2022/04/21 09:08:24;;;;;;;11.18;9.28;;;;;;;10.10;61.05;99858.22;1678928;83;21142;-75
2022/04/21 09:11:08;;;;;;;11.10;9.38;;;;;;;10.03;61.41;99864.34;1679583;83;21063;-76
2022/04/21 09:13:42;;;;;;;10.45;8.28;;;;;;;10.09;61.58;99865.94;1637736;84;21006;-75
2022/04/21 09:16:12;;;;;;;10.45;8.98;;;;;;;10.18;61.55;99866.19;1657525;84;21030;-74
2022/04/21 09:18:46;;;;;;;10.80;8.33;;;;;;;10.12;61.35;99867.81;1646277;84;21153;-75
2022/04/21 09:21:16;;;;;;;10.65;8.68;;;;;;;10.08;61.39;99863.55;1688989;83;20960;-77
2022/04/21 09:23:45;;;;;;;9.85;8.20;;;;;;;10.06;61.42;99859.01;1663155;84;21039;-76
2022/04/21 09:26:19;;;;;;;9.58;7.33;;;;;;;10.07;61.36;99868.09;1699065;84;21072;-75
2022/04/21 09:28:54;;;;;;;9.73;8.23;;;;;;;10.08;61.57;99864.89;1669456;85;21075;-76
2022/04/21 09:31:21;;;;;;;9.98;7.83;;;;;;;10.11;61.70;99869.69;1677997;83;21091;-76
2022/04/21 09:33:51;;;;;;;9.00;7.70;;;;;;;10.08;61.87;99868.89;1698239;83;21564;-76
2022/04/21 09:36:19;;;;;;;10.58;9.35;;;;;;;10.14;62.13;99866.48;1712984;83;21091;-76
2022/04/21 09:38:59;;;;;;;12.82;9.85;;;;;;;10.19;62.03;99866.45;1644231;84;20993;-76
2022/04/21 09:41:30;;;;;;;12.68;10.45;;;;;;;10.27;62.05;99866.48;1681650;83;21070;-75
2022/04/21 09:46:56;;;;;;;13.83;10.85;;;;;;;10.43;62.02;99869.36;1672770;83;21069;-75
2022/04/21 09:49:43;;;;;;;11.75;10.10;;;;;;;10.46;62.27;99867.99;1692945;83;21732;-75
2022/04/21 09:52:12;;;;;;;12.33;9.37;;;;;;;10.55;62.41;99867.16;1653193;85;21007;-76
2022/04/21 09:54:45;;;;;;;10.32;8.43;;;;;;;10.73;62.24;99867.64;1650579;84;21825;-76
2022/04/21 09:57:08;;;;;;;11.93;9.07;;;;;;;10.94;61.87;99870.45;1684168;83;21063;-76
2022/04/21 09:59:35;;;;;;;9.30;7.77;;;;;;;11.09;61.17;99864.75;1664519;84;21289;-74
2022/04/21 10:02:03;;;;;;;8.27;7.00;;;;;;;11.22;60.87;99865.45;1658630;85;21458;-75
2022/04/21 10:04:30;;;;;;;8.60;7.13;;;;;;;11.42;60.46;99869.34;1663758;84;21369;-74
2022/04/21 10:06:59;;;;;;;7.43;6.60;;;;;;;11.60;59.69;99872.41;1649262;84;21322;-76
2022/04/21 10:09:25;;;;;;;9.53;7.20;;;;;;;11.59;58.62;99872.16;1658682;84;21337;-75
2022/04/21 10:11:55;;;;;;;8.33;7.37;;;;;;;11.50;58.50;99867.94;1660285;85;21312;-75
2022/04/21 10:14:22;;;;;;;8.53;7.60;;;;;;;11.44;58.18;99872.52;1688041;83;21646;-75
2022/04/21 10:16:51;;;;;;;7.93;7.00;;;;;;;11.41;58.25;99881.64;1692900;83;21081;-75
2022/04/21 10:19:19;;;;;;;8.23;6.73;;;;;;;11.44;58.31;99879.75;1689408;83;21202;-75
2022/04/21 10:22:05;;;;;;;9.33;7.67;;;;;;;11.51;58.24;99882.36;1658633;83;21129;-75
2022/04/21 10:24:34;;;;;;;7.87;7.00;;;;;;;11.56;57.95;99888.77;1678624;83;21169;-75
2022/04/21 10:27:01;;;;;;;8.40;6.27;;;;;;;11.51;57.98;99890.38;1664172;84;21909;-76
2022/04/21 10:29:30;;;;;;;8.53;7.63;;;;;;;11.46;57.86;99893.11;1650835;84;21439;-75
2022/04/21 10:32:03;;;;;;;9.30;7.90;;;;;;;11.34;57.99;99898.55;1679276;83;21343;-75
2022/04/21 10:34:42;;;;;;;8.67;7.50;;;;;;;11.25;58.19;99906.34;1685134;83;21215;-73
2022/04/21 10:37:20;;;;;;;8.33;7.27;;;;;;;11.17;58.44;99906.94;1697991;84;21320;-75
2022/04/21 10:40:10;;;;;;;9.87;8.20;;;;;;;11.14;58.68;99904.81;1682076;83;21352;-75
2022/04/21 10:42:55;;;;;;;10.43;8.33;;;;;;;11.16;59.02;99906.69;1679390;83;21404;-75
2022/04/21 10:45:37;;;;;;;9.60;8.10;;;;;;;11.28;58.96;99909.80;1682237;83;21081;-74
2022/04/21 10:48:11;;;;;;;8.70;7.57;;;;;;;11.39;58.73;99910.55;1678264;83;21158;-76
2022/04/21 10:50:42;;;;;;;10.43;8.50;;;;;;;11.41;58.37;99904.38;1658154;84;21216;-75
2022/04/21 10:58:47;;;;;;;10.13;8.63;;;;;;;11.62;58.15;99915.20;1657971;84;21336;-78
2022/04/21 11:01:23;;;;;;;8.97;7.80;;;;;;;11.75;58.07;99913.77;1651775;84;21334;-75
2022/04/21 11:04:19;;;;;;;8.47;7.50;;;;;;;11.90;57.87;99912.84;1632916;87;21327;-75
2022/04/21 11:06:51;;;;;;;7.73;6.60;;;;;;;12.04;57.71;99911.65;1691264;83;22206;-76
2022/04/21 11:09:39;;;;;;;9.70;8.30;;;;;;;12.12;57.71;99917.74;1700388;82;21888;-76
2022/04/21 11:12:11;;;;;;;10.10;7.90;;;;;;;12.08;57.79;99915.38;1701895;83;21214;-76
2022/04/21 11:14:40;;;;;;;9.95;7.65;;;;;;;12.22;58.19;99916.30;1693860;82;21848;-74
2022/04/21 11:17:08;;;;;;;8.97;7.50;;;;;;;12.39;57.75;99923.34;1675422;85;20967;-76
2022/04/21 11:19:45;;;;;;;8.60;7.03;;;;;;;12.29;56.90;99915.97;1675322;85;21041;-74
2022/04/21 11:22:16;;;;;;;8.97;7.70;;;;;;;12.25;56.85;99921.09;1675204;83;21301;-75
2022/04/21 11:25:01;;;;;;;8.80;7.43;;;;;;;12.22;56.69;99920.31;1679178;85;21638;-75
2022/04/21 11:27:32;;;;;;;8.07;6.93;;;;;;;12.09;56.45;99920.44;1635806;84;21299;-75
2022/04/21 11:30:13;;;;;;;8.10;6.80;;;;;;;11.93;56.31;99917.09;1634186;84;21305;-76
2022/04/21 11:32:53;;;;;;;9.75;8.23;;;;;;;11.92;56.53;99925.42;1660123;84;22009;-75
2022/04/21 11:35:25;;;;;;;7.37;6.37;;;;;;;11.94;56.44;99925.41;1687724;83;21118;-76
2022/04/21 11:37:57;;;;;;;8.75;7.10;;;;;;;12.04;56.32;99933.06;1694750;83;21227;-75
2022/04/21 11:40:34;;;;;;;11.37;8.43;;;;;;;12.09;56.07;99931.14;1701645;84;21459;-76
2022/04/21 11:43:14;;;;;;;9.57;7.40;;;;;;;12.05;55.47;99934.68;1694431;83;21892;-75
2022/04/21 11:45:54;;;;;;;7.50;6.53;;;;;;;11.93;55.44;99933.16;1696635;84;21197;-76
2022/04/21 11:48:21;;;;;;;7.43;6.53;;;;;;;11.88;55.51;99933.76;1694904;83;21375;-75
2022/04/21 11:50:50;;;;;;;9.43;7.53;;;;;;;11.80;55.46;99940.45;1648074;84;21930;-75
2022/04/21 11:53:21;;;;;;;8.43;7.03;;;;;;;11.73;55.63;99944.00;1674413;83;21347;-75
2022/04/21 11:55:51;;;;;;;8.53;6.97;;;;;;;11.63;55.90;99940.06;1680351;83;21247;-76
2022/04/21 11:58:29;;;;;;;8.37;6.20;;;;;;;11.50;55.96;99946.29;1686607;83;21676;-74
2022/04/21 12:06:52;;;;;;;8.40;6.77;;;;;;;11.35;56.98;99946.92;1680689;83;21318;-76
2022/04/21 12:09:21;;;;;;;8.20;6.53;;;;;;;11.51;57.13;99947.09;1676505;83;21346;-76
2022/04/21 12:12:00;;;;;;;7.97;5.97;;;;;;;11.64;57.01;99941.11;1673200;85;21327;-75
2022/04/21 12:14:28;;;;;;;6.90;5.77;;;;;;;11.80;56.50;99940.45;1684744;83;21495;-76
2022/04/21 12:16:59;;;;;;;6.07;5.30;;;;;;;11.89;56.09;99946.84;1685155;82;21325;-76
2022/04/21 12:19:42;;;;;;;8.07;6.23;;;;;;;11.92;55.82;99948.17;1668133;84;22046;-75
2022/04/21 12:22:16;;;;;;;7.87;6.60;;;;;;;11.85;55.85;99947.16;1550545;84;9999964;-76
2022/04/21 12:24:51;;;;;;;7.67;6.07;;;;;;;11.81;55.79;99942.05;1704653;82;21543;-76
2022/04/21 12:27:34;;;;;;;5.83;4.90;;;;;;;11.95;55.63;99942.25;1704499;83;21273;-75
2022/04/21 12:30:08;;;;;;;6.40;5.50;;;;;;;12.13;55.43;99939.41;1694042;84;21390;-74
2022/04/21 12:32:39;;;;;;;6.07;4.57;;;;;;;12.27;55.11;99942.22;1695518;82;21865;-76
2022/04/21 12:35:10;;;;;;;5.62;4.42;;;;;;;12.43;54.43;99940.98;1659232;84;21333;-75